Time;durP1;ratioP1;P1;durP2;ratioP2;P2;SDS_P1;SDS_P2;PMS_P1;PMS_P2;Temp;Humidity;BMP_temperature;BMP_pressure;BME280_temperature;BME280_humidity;BME280_pressure;Samples;Min_cycle;Max_cycle;Signal;HPM_P1;HPM_P2
2024/01/30 00:01:11;;;;;;;14.47;7.70;;;5.30;76.70;;;;;;5027670;28;20220;-71
2024/01/30 00:03:37;;;;;;;15.30;7.90;;;5.30;76.20;;;;;;5035181;28;20264;-73
2024/01/30 00:06:04;;;;;;;12.23;7.83;;;5.20;75.90;;;;;;5034657;28;20212;-71
2024/01/30 00:08:30;;;;;;;13.37;7.37;;;5.00;76.20;;;;;;5043927;28;20432;-71
2024/01/30 00:10:56;;;;;;;12.70;7.17;;;5.00;76.80;;;;;;5035434;28;20460;-70
2024/01/30 00:13:22;;;;;;;10.90;6.83;;;5.00;77.40;;;;;;5033320;28;20251;-72
2024/01/30 00:15:48;;;;;;;16.30;8.00;;;5.00;77.60;;;;;;5042539;28;20188;-72
2024/01/30 00:18:14;;;;;;;11.67;7.20;;;5.00;77.60;;;;;;5037915;28;20471;-72
2024/01/30 00:20:39;;;;;;;10.60;7.03;;;4.90;77.70;;;;;;5033986;28;20212;-73
2024/01/30 00:23:05;;;;;;;11.27;7.33;;;4.90;77.70;;;;;;5027048;28;20182;-72
2024/01/30 00:25:30;;;;;;;14.73;7.90;;;4.90;77.70;;;;;;5039520;28;20361;-71
2024/01/30 00:27:56;;;;;;;12.83;7.73;;;5.00;77.80;;;;;;5034048;28;20182;-71
2024/01/30 00:30:22;;;;;;;11.83;7.10;;;5.00;77.60;;;;;;5027246;28;20212;-72
2024/01/30 00:32:47;;;;;;;12.70;7.10;;;5.00;77.10;;;;;;5027779;28;20178;-71
2024/01/30 00:35:13;;;;;;;12.23;7.50;;;4.90;77.70;;;;;;5044970;28;20246;-72
2024/01/30 00:37:38;;;;;;;12.00;6.67;;;4.80;78.10;;;;;;5033342;28;20176;-72
2024/01/30 00:40:05;;;;;;;10.00;7.10;;;4.80;78.40;;;;;;5039301;28;20188;-72
2024/01/30 00:42:31;;;;;;;13.57;7.30;;;4.80;78.60;;;;;;5030458;28;20189;-72
2024/01/30 00:44:57;;;;;;;14.23;7.07;;;4.80;78.70;;;;;;5036814;28;20455;-73
2024/01/30 00:47:23;;;;;;;9.10;6.30;;;4.80;78.70;;;;;;5023628;28;20185;-72
2024/01/30 00:49:49;;;;;;;15.33;7.07;;;4.80;78.70;;;;;;5044983;28;20496;-72
2024/01/30 00:52:15;;;;;;;9.43;6.80;;;4.80;78.90;;;;;;5021483;28;20205;-72
2024/01/30 00:54:41;;;;;;;9.73;5.93;;;4.70;78.90;;;;;;5030896;28;20438;-73
2024/01/30 00:57:07;;;;;;;12.57;7.33;;;4.70;79.30;;;;;;5020375;28;20429;-73
2024/01/30 00:59:32;;;;;;;10.23;6.13;;;4.80;79.30;;;;;;5040470;28;20284;-71
2024/01/30 01:01:58;;;;;;;10.83;6.33;;;4.80;79.30;;;;;;5035151;28;20456;-71
2024/01/30 01:04:24;;;;;;;13.90;8.43;;;4.80;79.20;;;;;;5030454;28;20185;-72
2024/01/30 01:06:49;;;;;;;11.57;7.50;;;4.80;79.20;;;;;;5034550;28;20258;-71
2024/01/30 01:09:15;;;;;;;16.20;7.47;;;4.80;79.00;;;;;;5033320;28;20205;-73
2024/01/30 01:11:40;;;;;;;15.83;8.60;;;4.80;78.70;;;;;;5022873;28;20219;-71
2024/01/30 01:14:06;;;;;;;14.87;7.50;;;4.80;78.70;;;;;;5026547;28;20207;-71
2024/01/30 01:16:33;;;;;;;10.13;7.10;;;4.80;78.60;;;;;;5032583;28;20232;-73
2024/01/30 01:19:00;;;;;;;17.30;8.17;;;4.80;78.70;;;;;;5032461;28;20194;-72
2024/01/30 01:21:25;;;;;;;12.97;7.77;;;4.80;78.70;;;;;;5028313;28;20452;-70
2024/01/30 01:23:51;;;;;;;14.13;7.20;;;4.80;78.60;;;;;;5028308;28;20427;-70
2024/01/30 01:26:17;;;;;;;11.80;7.07;;;4.80;78.70;;;;;;5034945;28;20219;-70
2024/01/30 01:28:42;;;;;;;12.53;7.70;;;4.90;78.60;;;;;;5033978;28;20172;-71
2024/01/30 01:31:08;;;;;;;13.30;6.87;;;4.90;78.30;;;;;;5020761;28;20698;-71
2024/01/30 01:33:34;;;;;;;14.33;7.93;;;4.90;78.30;;;;;;5028543;28;20199;-70
2024/01/30 01:36:02;;;;;;;12.80;7.27;;;4.80;78.10;;;;;;5032899;28;20411;-70
2024/01/30 01:38:28;;;;;;;14.83;7.53;;;4.80;78.30;;;;;;5028394;28;20242;-71
2024/01/30 01:40:54;;;;;;;11.50;7.30;;;4.70;78.10;;;;;;5027994;28;21015;-71
2024/01/30 01:43:19;;;;;;;11.67;7.00;;;4.70;78.40;;;;;;5028288;28;20508;-71
2024/01/30 01:45:45;;;;;;;12.67;7.23;;;4.70;78.60;;;;;;5040440;28;20210;-71
2024/01/30 01:48:12;;;;;;;16.13;8.20;;;4.60;78.30;;;;;;5020301;28;20178;-71
2024/01/30 01:50:39;;;;;;;14.70;7.43;;;4.50;78.70;;;;;;5039539;28;20449;-70
2024/01/30 01:53:07;;;;;;;11.63;7.07;;;4.50;79.20;;;;;;5026610;28;20405;-71
2024/01/30 01:55:34;;;;;;;11.73;7.17;;;4.40;79.00;;;;;;5028598;28;20449;-71
2024/01/30 01:58:00;;;;;;;13.23;7.40;;;4.40;79.50;;;;;;5022133;28;20436;-71
2024/01/30 02:00:26;;;;;;;10.97;6.90;;;4.40;79.70;;;;;;5033591;28;20467;-71
2024/01/30 02:02:54;;;;;;;11.20;7.03;;;4.40;79.70;;;;;;5023429;28;20261;-71
2024/01/30 02:05:20;;;;;;;10.77;6.60;;;4.50;79.70;;;;;;5030048;28;20209;-71
2024/01/30 02:07:46;;;;;;;10.90;6.43;;;4.60;79.60;;;;;;5031029;28;20447;-72
2024/01/30 02:10:12;;;;;;;12.23;7.30;;;4.50;79.30;;;;;;5029283;28;20543;-70
2024/01/30 02:12:38;;;;;;;11.70;6.93;;;4.50;79.20;;;;;;5027072;28;20204;-71
2024/01/30 02:15:05;;;;;;;12.47;7.13;;;4.50;79.20;;;;;;5028696;28;20849;-72
2024/01/30 02:17:32;;;;;;;13.03;7.53;;;4.40;79.30;;;;;;5024810;28;20189;-70
2024/01/30 02:19:57;;;;;;;13.47;7.37;;;4.50;79.50;;;;;;5035073;28;20436;-70
2024/01/30 02:22:23;;;;;;;10.53;6.17;;;4.40;79.50;;;;;;5021996;28;20863;-71
2024/01/30 02:24:49;;;;;;;14.03;7.30;;;4.40;79.50;;;;;;5025460;28;20185;-70
2024/01/30 02:27:15;;;;;;;11.03;6.83;;;4.50;79.50;;;;;;5031576;28;20428;-70
2024/01/30 02:29:41;;;;;;;13.10;7.40;;;4.50;79.30;;;;;;5021485;28;20733;-70
2024/01/30 02:32:07;;;;;;;10.67;6.90;;;4.40;79.00;;;;;;5030325;28;20212;-71
2024/01/30 02:34:33;;;;;;;13.13;7.00;;;4.30;79.50;;;;;;5026011;28;20189;-72
2024/01/30 02:36:59;;;;;;;13.70;6.60;;;4.30;79.90;;;;;;5024651;28;20888;-71
2024/01/30 02:39:24;;;;;;;12.00;7.50;;;4.20;80.20;;;;;;5019946;28;20221;-71
2024/01/30 02:41:50;;;;;;;11.80;7.00;;;4.30;80.30;;;;;;5023495;28;20292;-72
2024/01/30 02:44:16;;;;;;;14.63;7.77;;;4.30;80.30;;;;;;5017797;28;20228;-72
2024/01/30 02:46:41;;;;;;;9.43;6.80;;;4.20;80.20;;;;;;5025264;28;20307;-72
2024/01/30 02:49:07;;;;;;;12.40;6.90;;;4.30;80.30;;;;;;5021084;28;20186;-71
2024/01/30 02:51:34;;;;;;;11.63;7.30;;;4.10;80.20;;;;;;5025957;28;20293;-72
2024/01/30 02:54:00;;;;;;;14.43;8.40;;;4.20;80.30;;;;;;5019081;28;20421;-72
2024/01/30 02:56:25;;;;;;;14.00;8.23;;;4.20;80.20;;;;;;5018099;28;20432;-71
2024/01/30 02:58:51;;;;;;;13.70;7.30;;;4.20;80.00;;;;;;5018175;28;20197;-71
2024/01/30 03:01:16;;;;;;;19.20;7.60;;;4.30;80.00;;;;;;5018523;28;20706;-71
2024/01/30 03:03:43;;;;;;;13.90;7.70;;;4.20;79.90;;;;;;5021517;28;20191;-71
2024/01/30 03:06:08;;;;;;;12.63;7.73;;;4.30;79.90;;;;;;5026392;28;20550;-72
2024/01/30 03:08:35;;;;;;;12.30;6.77;;;4.10;79.70;;;;;;5021160;28;20426;-71
2024/01/30 03:11:00;;;;;;;13.20;7.70;;;4.10;80.20;;;;;;5026704;28;20205;-71
2024/01/30 03:13:27;;;;;;;13.40;7.50;;;4.10;80.30;;;;;;5023518;28;20436;-70
2024/01/30 03:15:52;;;;;;;12.67;7.00;;;4.10;80.30;;;;;;5023198;28;20420;-71
2024/01/30 03:18:18;;;;;;;11.33;6.90;;;4.10;80.50;;;;;;5016206;28;20228;-71
2024/01/30 03:20:43;;;;;;;12.57;7.93;;;4.10;80.60;;;;;;5024377;28;20225;-71
2024/01/30 03:23:09;;;;;;;11.33;6.73;;;4.10;80.60;;;;;;5020943;28;20657;-72
2024/01/30 03:25:34;;;;;;;13.33;7.73;;;4.10;80.50;;;;;;5022951;28;20300;-72
2024/01/30 03:28:00;;;;;;;9.97;6.63;;;4.10;80.60;;;;;;5019199;28;20579;-72
2024/01/30 03:30:26;;;;;;;12.20;6.73;;;4.10;80.60;;;;;;5024798;28;20212;-71
2024/01/30 03:32:51;;;;;;;14.70;7.60;;;4.10;80.30;;;;;;5017773;28;20559;-72
2024/01/30 03:35:18;;;;;;;12.23;7.67;;;4.10;80.30;;;;;;5021482;28;20189;-72
2024/01/30 03:37:44;;;;;;;14.20;7.50;;;4.20;80.20;;;;;;5023740;28;20185;-71
2024/01/30 03:40:10;;;;;;;11.30;7.00;;;4.20;80.00;;;;;;5021475;28;20485;-72
2024/01/30 03:42:35;;;;;;;13.03;7.20;;;4.20;79.70;;;;;;5022891;28;20218;-72
2024/01/30 03:45:02;;;;;;;9.20;6.47;;;4.20;79.70;;;;;;5020582;28;20499;-70
2024/01/30 03:47:27;;;;;;;13.07;7.50;;;4.10;79.70;;;;;;5022004;28;20253;-70
2024/01/30 03:49:53;;;;;;;12.50;7.40;;;4.20;79.90;;;;;;5021609;28;20421;-70
2024/01/30 03:52:19;;;;;;;16.40;7.90;;;4.20;79.60;;;;;;5025994;28;20209;-70
2024/01/30 03:54:44;;;;;;;10.83;6.23;;;4.20;79.20;;;;;;5021240;28;20273;-70
2024/01/30 03:57:10;;;;;;;14.23;7.07;;;4.10;79.20;;;;;;5027987;28;20200;-69
2024/01/30 03:59:35;;;;;;;10.80;6.83;;;4.20;79.20;;;;;;5028807;28;20209;-70
2024/01/30 04:02:01;;;;;;;12.30;7.50;;;4.30;79.00;;;;;;5027817;28;20316;-70
2024/01/30 04:04:26;;;;;;;14.80;8.17;;;4.30;78.90;;;;;;5028586;28;20669;-70
2024/01/30 04:06:52;;;;;;;12.27;7.40;;;4.30;78.40;;;;;;5030409;28;20209;-71
2024/01/30 04:09:18;;;;;;;14.33;7.43;;;4.20;78.40;;;;;;5030806;28;20276;-70
2024/01/30 04:11:44;;;;;;;10.70;6.10;;;4.10;78.70;;;;;;5028373;28;20209;-71
2024/01/30 04:14:10;;;;;;;15.13;7.10;;;4.20;78.70;;;;;;5018169;28;20431;-72
2024/01/30 04:16:36;;;;;;;13.10;7.63;;;4.10;78.40;;;;;;5031347;28;20269;-71
2024/01/30 04:19:02;;;;;;;10.43;6.80;;;4.20;78.70;;;;;;5020396;28;20519;-72
2024/01/30 04:21:27;;;;;;;10.13;7.00;;;4.20;78.40;;;;;;5032810;28;20210;-70
2024/01/30 04:23:53;;;;;;;9.70;6.37;;;4.20;78.40;;;;;;5027349;28;20185;-71
2024/01/30 04:26:19;;;;;;;12.40;6.87;;;4.10;78.40;;;;;;5034092;28;20282;-70
2024/01/30 04:28:45;;;;;;;13.07;8.03;;;4.10;78.90;;;;;;5023752;28;20821;-71
2024/01/30 04:31:11;;;;;;;11.57;7.53;;;4.10;78.90;;;;;;5035917;28;20293;-71
2024/01/30 04:33:37;;;;;;;11.27;6.70;;;4.10;78.90;;;;;;5023164;28;20428;-72
2024/01/30 04:36:08;;;;;;;11.97;7.13;;;4.10;78.90;;;;;;5026976;28;20511;-71
2024/01/30 04:38:34;;;;;;;12.60;7.50;;;4.20;78.70;;;;;;5030361;28;20432;-71
2024/01/30 04:41:00;;;;;;;14.07;7.90;;;4.20;78.30;;;;;;5030135;28;20459;-72
2024/01/30 04:43:26;;;;;;;13.10;7.87;;;4.10;78.10;;;;;;5027010;28;20244;-71
2024/01/30 04:45:51;;;;;;;14.70;8.40;;;4.00;78.60;;;;;;5033751;28;20551;-71
2024/01/30 04:48:17;;;;;;;16.10;8.20;;;4.10;78.60;;;;;;5024082;28;20508;-71
2024/01/30 04:50:44;;;;;;;13.10;7.80;;;4.00;78.40;;;;;;5030263;28;20200;-72
2024/01/30 04:53:09;;;;;;;12.30;7.63;;;4.10;78.40;;;;;;5033601;28;20197;-71
2024/01/30 04:55:36;;;;;;;15.97;7.73;;;4.10;78.40;;;;;;5031913;28;20930;-70
2024/01/30 04:58:02;;;;;;;12.53;8.07;;;4.10;78.40;;;;;;5041616;28;20273;-72
2024/01/30 05:00:27;;;;;;;13.77;7.53;;;4.10;78.40;;;;;;5022519;28;20495;-70
2024/01/30 05:02:54;;;;;;;13.87;8.53;;;4.10;78.60;;;;;;5027390;28;20689;-70
2024/01/30 05:05:21;;;;;;;13.57;8.17;;;4.00;78.40;;;;;;5021315;28;20209;-70
2024/01/30 05:07:47;;;;;;;16.17;8.97;;;4.00;78.90;;;;;;5041421;28;20411;-69
2024/01/30 05:10:13;;;;;;;15.03;8.47;;;4.10;78.90;;;;;;5017485;28;21112;-70
2024/01/30 05:12:39;;;;;;;13.20;8.03;;;4.10;78.60;;;;;;5029226;28;20182;-71
2024/01/30 05:15:05;;;;;;;15.30;8.73;;;4.00;78.60;;;;;;5022020;28;20616;-71
2024/01/30 05:17:30;;;;;;;12.67;7.10;;;3.90;78.70;;;;;;5033300;28;20540;-70
2024/01/30 05:19:56;;;;;;;14.20;8.00;;;3.90;79.00;;;;;;5024402;28;20416;-72
2024/01/30 05:22:22;;;;;;;13.47;8.27;;;4.00;79.20;;;;;;5024986;28;20263;-70
2024/01/30 05:24:47;;;;;;;13.57;8.63;;;4.00;79.00;;;;;;5026295;28;20302;-71
2024/01/30 05:27:15;;;;;;;13.03;8.20;;;3.90;79.00;;;;;;5036609;28;20193;-71
2024/01/30 05:29:41;;;;;;;14.53;8.47;;;3.90;79.20;;;;;;5028699;28;20180;-70
2024/01/30 05:32:07;;;;;;;14.60;8.00;;;3.90;79.00;;;;;;5024682;28;20465;-71
2024/01/30 05:34:33;;;;;;;15.63;8.40;;;4.00;79.20;;;;;;5021377;28;20182;-71
2024/01/30 05:36:58;;;;;;;14.33;8.13;;;4.00;79.00;;;;;;5025493;28;20794;-70
2024/01/30 05:39:24;;;;;;;14.53;8.83;;;3.90;79.00;;;;;;5034612;28;20180;-70
2024/01/30 05:41:50;;;;;;;12.50;7.90;;;3.90;79.30;;;;;;5024769;28;20229;-72
2024/01/30 05:44:15;;;;;;;17.93;10.57;;;3.90;79.30;;;;;;5023531;28;20181;-71
2024/01/30 05:46:41;;;;;;;16.43;8.50;;;3.90;79.20;;;;;;5035137;28;20211;-70
2024/01/30 05:49:07;;;;;;;13.27;7.83;;;3.80;79.30;;;;;;5024520;28;20210;-72
2024/01/30 05:51:32;;;;;;;16.13;8.47;;;3.90;79.50;;;;;;5024678;28;20467;-72
2024/01/30 05:53:58;;;;;;;13.03;9.10;;;3.90;79.30;;;;;;5026801;28;20185;-70
2024/01/30 05:56:24;;;;;;;11.20;7.90;;;3.80;79.30;;;;;;5026759;28;20193;-70
2024/01/30 05:58:52;;;;;;;14.63;8.13;;;3.80;79.50;;;;;;5032149;28;20234;-71
2024/01/30 06:01:18;;;;;;;14.10;8.70;;;3.90;79.70;;;;;;5023158;28;20288;-70
2024/01/30 06:03:43;;;;;;;9.50;7.20;;;3.80;79.60;;;;;;5024160;28;20443;-72
2024/01/30 06:06:10;;;;;;;15.30;9.03;;;3.90;79.70;;;;;;5025198;28;20217;-73
2024/01/30 06:08:36;;;;;;;13.57;8.10;;;3.90;79.20;;;;;;5036999;28;20192;-70
2024/01/30 06:11:01;;;;;;;17.23;8.87;;;3.90;79.20;;;;;;5021948;28;20456;-71
2024/01/30 06:13:27;;;;;;;14.50;8.23;;;3.90;79.00;;;;;;5029917;28;20323;-70
2024/01/30 06:15:53;;;;;;;15.23;8.80;;;3.80;79.20;;;;;;5034705;28;20198;-69
2024/01/30 06:18:19;;;;;;;14.43;8.97;;;3.90;79.30;;;;;;5039870;28;20219;-72
2024/01/30 06:20:46;;;;;;;15.43;9.00;;;3.80;79.30;;;;;;5028438;28;20472;-72
2024/01/30 06:23:14;;;;;;;17.80;8.90;;;3.80;79.60;;;;;;5024607;28;20268;-70
2024/01/30 06:25:40;;;;;;;14.03;8.70;;;3.80;79.50;;;;;;5024550;28;20477;-71
2024/01/30 06:28:05;;;;;;;16.47;9.67;;;3.80;79.50;;;;;;5033438;28;20433;-70
2024/01/30 06:30:34;;;;;;;18.90;8.83;;;3.80;79.60;;;;;;5020954;28;20456;-71
2024/01/30 06:33:00;;;;;;;14.20;8.87;;;3.80;79.50;;;;;;5024457;28;20190;-72
2024/01/30 06:35:26;;;;;;;16.27;9.10;;;3.80;79.50;;;;;;5023890;28;20424;-72
2024/01/30 06:37:51;;;;;;;15.70;8.80;;;3.80;79.30;;;;;;5038855;28;20193;-72
2024/01/30 06:40:17;;;;;;;16.50;8.57;;;3.80;79.50;;;;;;5024451;28;20463;-74
2024/01/30 06:42:42;;;;;;;15.13;8.40;;;3.80;79.30;;;;;;5029153;28;20180;-73
2024/01/30 06:45:08;;;;;;;13.50;8.23;;;3.90;79.20;;;;;;5025136;28;20201;-73
2024/01/30 06:47:34;;;;;;;14.40;8.17;;;3.90;79.00;;;;;;5037025;28;20190;-74
2024/01/30 06:49:59;;;;;;;15.63;8.53;;;3.90;79.20;;;;;;5033792;28;20423;-73
2024/01/30 06:52:25;;;;;;;15.13;8.83;;;3.90;79.20;;;;;;5035350;28;20200;-74
2024/01/30 06:54:50;;;;;;;24.20;10.03;;;3.80;78.90;;;;;;5033145;28;20637;-75
2024/01/30 06:57:16;;;;;;;15.23;8.27;;;3.90;79.20;;;;;;5031816;28;20239;-73
2024/01/30 06:59:43;;;;;;;18.17;9.03;;;4.00;79.00;;;;;;5030053;28;20188;-71
2024/01/30 07:02:10;;;;;;;18.23;8.80;;;3.90;78.60;;;;;;5025963;28;20625;-71
2024/01/30 07:04:37;;;;;;;14.60;8.60;;;3.90;78.60;;;;;;5041145;28;20498;-71
2024/01/30 07:07:04;;;;;;;15.00;8.57;;;3.90;78.70;;;;;;5025457;28;20552;-72
2024/01/30 07:09:30;;;;;;;14.53;8.10;;;3.90;79.20;;;;;;5039510;28;20424;-70
2024/01/30 07:11:58;;;;;;;13.03;8.30;;;4.00;78.70;;;;;;5022458;28;20457;-71
2024/01/30 07:14:24;;;;;;;14.77;8.50;;;4.00;78.40;;;;;;5027438;28;20197;-72
2024/01/30 07:16:50;;;;;;;12.97;8.00;;;4.00;78.60;;;;;;5025414;28;20436;-71
2024/01/30 07:19:15;;;;;;;16.70;9.60;;;4.00;78.60;;;;;;5031121;28;20185;-72
2024/01/30 07:21:41;;;;;;;13.70;8.20;;;4.00;78.40;;;;;;5023876;28;20464;-70
2024/01/30 07:24:07;;;;;;;15.30;9.03;;;4.00;78.70;;;;;;5032637;28;20620;-72
2024/01/30 07:26:32;;;;;;;16.47;9.20;;;3.90;78.60;;;;;;5027229;28;20209;-73
2024/01/30 07:28:58;;;;;;;14.77;8.90;;;4.00;78.70;;;;;;5032299;28;20210;-72
2024/01/30 07:31:23;;;;;;;18.43;8.40;;;4.10;78.60;;;;;;5025948;28;20217;-71
2024/01/30 07:33:49;;;;;;;13.20;8.93;;;4.10;78.40;;;;;;5032918;28;20185;-72
2024/01/30 07:36:14;;;;;;;14.17;8.23;;;4.10;78.40;;;;;;5026595;28;20558;-72
2024/01/30 07:38:40;;;;;;;15.67;9.57;;;4.20;78.30;;;;;;5034338;28;20193;-72
2024/01/30 07:41:06;;;;;;;15.67;9.23;;;4.10;78.10;;;;;;5024929;28;20246;-72
2024/01/30 07:43:33;;;;;;;16.80;9.17;;;4.30;78.10;;;;;;5030666;28;20830;-72
2024/01/30 07:46:00;;;;;;;14.07;8.80;;;4.30;77.70;;;;;;5032473;28;20207;-71
2024/01/30 07:48:27;;;;;;;13.80;8.23;;;4.30;77.70;;;;;;5034467;28;20529;-72
2024/01/30 07:50:53;;;;;;;15.57;9.10;;;4.30;77.70;;;;;;5025248;28;20455;-72
2024/01/30 07:53:18;;;;;;;21.27;7.90;;;4.40;77.60;;;;;;5026822;28;20435;-71
2024/01/30 07:55:47;;;;;;;17.33;9.03;;;4.40;77.60;;;;;;5033618;28;20688;-71
2024/01/30 07:58:12;;;;;;;16.93;8.93;;;4.50;77.10;;;;;;5036199;28;20193;-70
2024/01/30 08:00:38;;;;;;;18.73;8.57;;;4.60;76.50;;;;;;5025016;28;20475;-70
2024/01/30 08:03:04;;;;;;;13.67;8.40;;;4.60;76.80;;;;;;5030941;28;20177;-71
2024/01/30 08:05:30;;;;;;;16.03;8.97;;;4.60;77.10;;;;;;5035730;28;20467;-71
2024/01/30 08:07:56;;;;;;;16.70;8.60;;;4.60;76.50;;;;;;5031738;28;20516;-72
2024/01/30 08:10:21;;;;;;;16.13;8.40;;;4.60;76.10;;;;;;5038740;28;20900;-72
2024/01/30 08:12:47;;;;;;;18.83;9.70;;;4.80;75.90;;;;;;5023232;28;20178;-72
2024/01/30 08:15:13;;;;;;;14.00;7.70;;;4.90;75.70;;;;;;5035571;28;20589;-72
2024/01/30 08:17:39;;;;;;;17.90;8.17;;;5.00;75.20;;;;;;5024700;28;20319;-71
2024/01/30 08:20:05;;;;;;;14.60;8.50;;;5.10;74.90;;;;;;5034017;28;20238;-72
2024/01/30 08:22:33;;;;;;;13.73;8.00;;;5.30;74.00;;;;;;5028489;28;20420;-71
2024/01/30 08:24:59;;;;;;;17.10;8.00;;;5.30;73.70;;;;;;5036433;28;20442;-72
2024/01/30 08:27:25;;;;;;;13.50;9.17;;;5.20;73.70;;;;;;5029243;28;20435;-72
2024/01/30 08:29:51;;;;;;;14.57;7.73;;;5.20;74.00;;;;;;5035461;28;20923;-73
2024/01/30 08:32:16;;;;;;;14.57;8.63;;;5.20;74.20;;;;;;5022479;28;20444;-72
2024/01/30 08:34:42;;;;;;;17.50;9.77;;;5.30;74.20;;;;;;5032130;28;20181;-71
2024/01/30 08:37:08;;;;;;;16.13;9.77;;;5.40;74.20;;;;;;5024220;28;20610;-72
2024/01/30 08:39:33;;;;;;;16.40;8.90;;;5.50;73.90;;;;;;5032508;28;20182;-71
2024/01/30 08:42:00;;;;;;;59.63;14.10;;;5.60;73.60;;;;;;5023966;28;20221;-70
2024/01/30 08:44:25;;;;;;;26.03;9.93;;;5.70;73.30;;;;;;5029017;28;20424;-73
2024/01/30 08:46:51;;;;;;;38.00;11.63;;;5.80;73.20;;;;;;5032117;28;20529;-72
2024/01/30 08:49:17;;;;;;;31.00;11.87;;;5.90;72.70;;;;;;5033658;28;20537;-72
2024/01/30 08:51:43;;;;;;;30.73;13.80;;;5.80;72.70;;;;;;5026546;28;20201;-73
2024/01/30 08:54:10;;;;;;;26.50;11.70;;;5.80;73.00;;;;;;5030033;28;20191;-73
2024/01/30 08:56:36;;;;;;;20.47;10.47;;;5.80;73.00;;;;;;5045602;28;20423;-71
2024/01/30 08:59:01;;;;;;;25.10;12.77;;;5.90;73.00;;;;;;5032595;28;20491;-71
2024/01/30 09:01:27;;;;;;;23.87;14.13;;;5.90;73.00;;;;;;5025161;28;20324;-71
2024/01/30 09:03:53;;;;;;;28.17;13.50;;;5.90;73.30;;;;;;5027305;28;20213;-71
2024/01/30 09:06:18;;;;;;;25.40;13.10;;;5.80;74.00;;;;;;5028747;28;20467;-71
2024/01/30 09:08:44;;;;;;;22.87;13.40;;;5.90;74.80;;;;;;5031100;28;20188;-71
2024/01/30 09:11:30;;;;;;;21.53;12.73;;;6.10;74.30;;;;;;5033111;28;20228;-72
2024/01/30 09:13:56;;;;;;;19.90;12.53;;;6.00;73.90;;;;;;5020291;28;20186;-71
2024/01/30 09:16:21;;;;;;;22.30;12.60;;;6.10;73.60;;;;;;5035396;28;20888;-72
2024/01/30 09:18:47;;;;;;;24.97;13.10;;;6.10;73.50;;;;;;5031728;28;20185;-71
2024/01/30 09:21:12;;;;;;;20.50;12.47;;;6.00;73.30;;;;;;5020306;28;20213;-72
2024/01/30 09:23:38;;;;;;;25.93;12.20;;;6.00;73.60;;;;;;5024748;28;20189;-72
2024/01/30 09:26:03;;;;;;;19.30;12.57;;;6.10;73.60;;;;;;5024380;28;20205;-71
2024/01/30 09:28:29;;;;;;;28.83;12.73;;;6.10;73.50;;;;;;5035270;28;20190;-71
2024/01/30 09:30:54;;;;;;;16.80;10.60;;;6.20;73.30;;;;;;5021889;28;20210;-72
2024/01/30 09:33:20;;;;;;;22.37;12.93;;;6.40;73.00;;;;;;5029066;28;20273;-70
2024/01/30 09:35:46;;;;;;;25.40;12.87;;;6.50;72.60;;;;;;5027810;28;20193;-72
2024/01/30 09:38:13;;;;;;;20.87;12.43;;;6.60;72.30;;;;;;5026841;28;20437;-72
2024/01/30 09:40:41;;;;;;;28.30;12.67;;;6.70;71.70;;;;;;5026051;28;20214;-71
2024/01/30 09:43:07;;;;;;;24.03;13.40;;;6.80;71.40;;;;;;5032559;28;20440;-73
2024/01/30 09:45:34;;;;;;;22.00;12.67;;;6.80;71.10;;;;;;5028138;28;20472;-72
2024/01/30 09:48:00;;;;;;;19.80;11.30;;;6.80;71.00;;;;;;5033308;28;20706;-71
2024/01/30 09:50:27;;;;;;;21.63;12.20;;;6.90;71.30;;;;;;5024173;28;20507;-72
2024/01/30 09:52:56;;;;;;;19.63;12.13;;;7.20;71.10;;;;;;5026638;28;20538;-71
2024/01/30 09:55:22;;;;;;;21.13;12.50;;;7.50;70.70;;;;;;5027511;28;20912;-71
2024/01/30 09:57:47;;;;;;;25.70;13.63;;;7.80;70.10;;;;;;5038889;28;20415;-72
2024/01/30 10:00:13;;;;;;;25.40;12.90;;;7.90;69.50;;;;;;5024750;28;21507;-72
2024/01/30 10:02:40;;;;;;;20.23;13.30;;;7.90;68.80;;;;;;5027698;28;20190;-71
2024/01/30 10:05:07;;;;;;;29.70;13.70;;;8.10;68.80;;;;;;5032508;28;20208;-72
2024/01/30 10:07:34;;;;;;;27.43;15.10;;;8.30;68.20;;;;;;5033131;28;20417;-71
2024/01/30 10:09:59;;;;;;;25.70;13.60;;;8.40;67.90;;;;;;5035602;28;20427;-71
2024/01/30 10:12:29;;;;;;;27.17;14.07;;;8.50;67.30;;;;;;5021709;28;20443;-71
2024/01/30 10:14:56;;;;;;;21.47;13.90;;;8.40;67.20;;;;;;5034183;28;20184;-71
2024/01/30 10:17:25;;;;;;;25.17;13.90;;;8.10;67.60;;;;;;5023191;28;20483;-72
2024/01/30 10:19:51;;;;;;;22.23;13.83;;;8.00;67.90;;;;;;5030376;28;20457;-71
2024/01/30 10:22:17;;;;;;;22.07;14.63;;;8.10;68.00;;;;;;5022129;28;20448;-72
2024/01/30 10:24:45;;;;;;;19.97;12.47;;;8.30;67.90;;;;;;5033998;28;20471;-71
2024/01/30 10:27:11;;;;;;;18.57;12.83;;;8.50;67.60;;;;;;5022889;28;20472;-71
2024/01/30 10:29:37;;;;;;;23.10;12.70;;;8.80;67.20;;;;;;5032942;28;20579;-71
2024/01/30 10:32:04;;;;;;;25.80;14.00;;;9.00;67.00;;;;;;5028942;28;20519;-70
2024/01/30 10:34:30;;;;;;;22.50;14.57;;;9.30;66.60;;;;;;5027012;28;20440;-70
2024/01/30 10:37:17;;;;;;;23.47;13.47;;;9.20;65.80;;;;;;5027570;28;20433;-71
2024/01/30 10:39:45;;;;;;;23.10;12.90;;;9.20;65.60;;;;;;5051977;28;20466;-71
2024/01/30 10:42:18;;;;;;;25.70;14.53;;;9.20;66.00;;;;;;5038993;28;20456;-72
2024/01/30 10:45:06;;;;;;;23.90;14.70;;;9.30;65.40;;;;;;5036779;28;20411;-72
2024/01/30 10:47:35;;;;;;;26.07;15.10;;;9.20;65.60;;;;;;5044259;28;20425;-71
2024/01/30 10:50:01;;;;;;;27.07;13.70;;;9.00;66.00;;;;;;5049948;28;20435;-72
2024/01/30 10:52:29;;;;;;;24.70;15.70;;;9.10;66.10;;;;;;5032453;28;20447;-74
2024/01/30 10:54:56;;;;;;;28.87;14.30;;;9.30;65.40;;;;;;5031560;28;20444;-71
2024/01/30 10:57:26;;;;;;;24.63;14.50;;;9.10;65.40;;;;;;5048815;28;20784;-71
2024/01/30 11:00:00;;;;;;;26.67;13.60;;;8.90;66.10;;;;;;5033264;28;20480;-71
2024/01/30 11:02:26;;;;;;;26.20;14.67;;;9.10;66.30;;;;;;5032046;28;20433;-72
2024/01/30 11:04:57;;;;;;;27.53;16.03;;;9.20;66.00;;;;;;5022544;28;20763;-70
2024/01/30 11:07:28;;;;;;;29.30;15.50;;;9.30;65.70;;;;;;5031550;28;20515;-72
2024/01/30 11:10:05;;;;;;;26.40;15.30;;;9.50;65.30;;;;;;5034793;28;20447;-70
2024/01/30 11:12:35;;;;;;;29.60;15.30;;;9.50;65.40;;;;;;5024044;28;20436;-70
2024/01/30 11:15:18;;;;;;;24.67;14.17;;;9.40;65.40;;;;;;5027795;28;20403;-71
2024/01/30 11:17:53;;;;;;;24.70;13.47;;;9.50;65.40;;;;;;5025965;28;20781;-69
2024/01/30 11:20:22;;;;;;;23.83;13.37;;;9.60;65.30;;;;;;5023388;28;20471;-71
2024/01/30 11:22:51;;;;;;;28.00;14.70;;;9.90;65.00;;;;;;5018115;28;20420;-71
2024/01/30 11:25:18;;;;;;;26.93;14.13;;;9.90;64.70;;;;;;5029436;28;20463;-72
2024/01/30 11:27:44;;;;;;;25.87;15.10;;;9.80;64.80;;;;;;5030826;28;20878;-72
2024/01/30 11:30:11;;;;;;;24.20;16.00;;;9.80;65.30;;;;;;5019609;28;20455;-72
2024/01/30 11:32:36;;;;;;;30.33;15.50;;;9.90;64.80;;;;;;5023639;28;20955;-71
2024/01/30 11:35:11;;;;;;;21.90;14.50;;;9.80;64.80;;;;;;5032297;28;20431;-72
2024/01/30 11:37:39;;;;;;;23.90;14.60;;;10.10;65.10;;;;;;5023628;28;20185;-71
2024/01/30 11:40:05;;;;;;;24.37;14.60;;;10.40;64.70;;;;;;5033668;28;20434;-72
2024/01/30 11:42:32;;;;;;;27.63;14.80;;;10.70;64.40;;;;;;5024731;28;20443;-71
2024/01/30 11:45:00;;;;;;;29.90;16.17;;;10.70;64.10;;;;;;5028104;28;20527;-72
2024/01/30 11:47:26;;;;;;;30.30;16.70;;;10.50;63.90;;;;;;5030603;28;20517;-72
2024/01/30 11:49:52;;;;;;;24.13;15.20;;;10.20;64.70;;;;;;5029590;28;20424;-72
2024/01/30 11:52:18;;;;;;;28.70;15.40;;;10.30;64.80;;;;;;5021388;28;20494;-72
2024/01/30 11:54:43;;;;;;;22.97;14.20;;;10.20;65.00;;;;;;5029321;28;20595;-71
2024/01/30 11:57:09;;;;;;;20.83;14.17;;;10.20;65.00;;;;;;5023423;28;20272;-72
2024/01/30 11:59:34;;;;;;;25.73;13.90;;;10.20;65.00;;;;;;5031651;28;20205;-72
2024/01/30 12:02:00;;;;;;;25.23;14.37;;;10.40;65.10;;;;;;5020803;28;20221;-72
2024/01/30 12:04:29;;;;;;;28.17;14.07;;;10.60;64.70;;;;;;5022816;28;20198;-72
2024/01/30 12:06:55;;;;;;;23.60;15.00;;;10.40;64.70;;;;;;5023889;28;20216;-73
2024/01/30 12:09:21;;;;;;;25.30;14.70;;;10.50;64.80;;;;;;5032357;28;20430;-72
2024/01/30 12:11:48;;;;;;;28.40;14.27;;;10.70;64.80;;;;;;5021873;28;20463;-72
2024/01/30 12:14:14;;;;;;;25.30;14.60;;;10.90;64.70;;;;;;5024164;28;20532;-72
2024/01/30 12:16:41;;;;;;;26.63;15.00;;;11.00;64.50;;;;;;5031949;28;20433;-73
2024/01/30 12:19:07;;;;;;;25.83;14.10;;;10.80;64.40;;;;;;5028265;28;20420;-72
2024/01/30 12:21:33;;;;;;;19.97;13.50;;;10.80;64.50;;;;;;5027736;28;20448;-71
2024/01/30 12:23:59;;;;;;;26.33;14.10;;;11.00;64.70;;;;;;5025007;28;20235;-72
2024/01/30 12:26:26;;;;;;;26.40;14.27;;;11.10;64.40;;;;;;5035584;28;20475;-72
2024/01/30 12:28:55;;;;;;;21.23;12.40;;;11.00;64.40;;;;;;5029960;28;20413;-72
2024/01/30 12:31:28;;;;;;;22.87;13.83;;;10.80;64.50;;;;;;5025987;28;20818;-71
2024/01/30 12:33:54;;;;;;;21.10;13.10;;;11.00;64.50;;;;;;5020759;28;20567;-71
2024/01/30 12:36:21;;;;;;;24.13;13.97;;;11.20;64.70;;;;;;5030782;28;20428;-72
2024/01/30 12:38:46;;;;;;;24.53;14.13;;;11.40;64.20;;;;;;5032863;28;20420;-72